createdAt,value
2018-09-25T00:02:07.325Z,11.80
2018-09-25T00:04:40.610Z,11.80
2018-09-25T00:07:14.115Z,11.80
2018-09-25T00:09:47.562Z,11.80
2018-09-25T00:12:21.114Z,11.80
2018-09-25T00:14:54.524Z,11.80
2018-09-25T00:17:27.926Z,11.70
2018-09-25T00:20:01.213Z,11.70
2018-09-25T00:22:34.506Z,11.60
2018-09-25T00:25:07.924Z,11.40
2018-09-25T00:27:41.466Z,11.40
2018-09-25T00:30:15.004Z,11.30
2018-09-25T00:32:48.422Z,11.30
2018-09-25T00:35:22.037Z,11.30
2018-09-25T00:37:55.529Z,11.20
2018-09-25T00:40:28.921Z,11.20
2018-09-25T00:43:02.329Z,11.10
2018-09-25T00:45:35.950Z,11.10
2018-09-25T00:48:09.385Z,11.10
2018-09-25T00:50:42.709Z,11.10
2018-09-25T00:53:16.138Z,11.00
2018-09-25T00:55:49.702Z,11.00
2018-09-25T00:58:23.100Z,11.00
2018-09-25T01:00:56.534Z,11.00
2018-09-25T01:03:29.961Z,11.00
2018-09-25T01:06:03.490Z,11.00
2018-09-25T01:08:37.089Z,10.90
2018-09-25T01:11:10.398Z,10.80
2018-09-25T01:13:43.848Z,10.80
2018-09-25T01:16:17.150Z,10.70
2018-09-25T01:18:50.702Z,10.70
2018-09-25T01:21:24.114Z,10.60
2018-09-25T01:23:57.566Z,10.50
2018-09-25T01:26:30.906Z,10.40
2018-09-25T01:29:04.498Z,10.30
2018-09-25T01:31:37.913Z,10.30
2018-09-25T01:34:11.286Z,10.20
2018-09-25T01:36:44.598Z,10.10
2018-09-25T01:39:18.146Z,10.10
2018-09-25T01:41:51.430Z,10.00
2018-09-25T01:44:24.746Z,9.90
2018-09-25T01:46:58.057Z,9.90
2018-09-25T01:49:31.357Z,9.80
2018-09-25T01:52:04.819Z,9.70
2018-09-25T01:54:38.239Z,9.70
2018-09-25T01:57:11.846Z,9.70
2018-09-25T01:59:45.426Z,9.70
2018-09-25T02:02:18.958Z,9.70
2018-09-25T02:04:52.562Z,9.70
2018-09-25T02:07:25.971Z,9.70
2018-09-25T02:09:59.441Z,9.80
2018-09-25T02:12:32.850Z,9.80
2018-09-25T02:15:06.284Z,9.70
2018-09-25T02:17:39.735Z,9.70
2018-09-25T02:20:13.172Z,9.60
2018-09-25T02:22:46.446Z,9.60
2018-09-25T02:25:20.047Z,9.50
2018-09-25T02:27:53.661Z,9.50
2018-09-25T02:30:27.241Z,9.50
2018-09-25T02:33:00.792Z,9.50
2018-09-25T02:35:34.262Z,9.40
2018-09-25T02:38:07.646Z,9.40
2018-09-25T02:40:40.968Z,9.50
2018-09-25T02:43:14.505Z,9.40
2018-09-25T02:45:47.909Z,9.40
2018-09-25T02:48:21.310Z,9.40
2018-09-25T02:50:54.858Z,9.40
2018-09-25T02:53:28.444Z,9.30
2018-09-25T02:56:01.974Z,9.30
2018-09-25T02:58:35.379Z,9.30
2018-09-25T03:01:08.754Z,9.40
2018-09-25T03:03:42.383Z,9.30
2018-09-25T03:06:15.694Z,9.30
2018-09-25T03:08:49.245Z,9.30
2018-09-25T03:11:22.701Z,9.20
2018-09-25T03:13:56.115Z,9.20
2018-09-25T03:16:29.537Z,9.20
2018-09-25T03:19:02.866Z,9.10
2018-09-25T03:21:36.548Z,9.10
2018-09-25T03:24:10.106Z,9.10
2018-09-25T03:26:43.675Z,9.10
2018-09-25T03:29:17.011Z,9.00
2018-09-25T03:31:50.410Z,9.00
2018-09-25T03:34:23.718Z,8.90
2018-09-25T03:36:57.371Z,8.90
2018-09-25T03:39:30.898Z,8.80
2018-09-25T03:42:04.280Z,8.70
2018-09-25T03:44:37.585Z,8.70
2018-09-25T03:47:10.915Z,8.70
2018-09-25T03:49:44.498Z,8.80
2018-09-25T03:52:18.042Z,8.80
2018-09-25T03:54:51.560Z,8.80
2018-09-25T03:57:24.982Z,8.80
2018-09-25T03:59:58.567Z,8.80
2018-09-25T04:02:31.966Z,8.90
2018-09-25T04:05:05.262Z,8.80
2018-09-25T04:07:38.695Z,8.80
2018-09-25T04:10:12.344Z,8.90
2018-09-25T04:12:45.662Z,8.80
2018-09-25T04:15:18.942Z,8.70
2018-09-25T04:17:52.586Z,8.70
2018-09-25T04:20:26.096Z,8.70
2018-09-25T04:22:59.574Z,8.70
2018-09-25T04:25:32.877Z,8.70
2018-09-25T04:28:06.482Z,8.70
2018-09-25T04:30:40.142Z,8.60
2018-09-25T04:33:13.816Z,8.60
2018-09-25T04:35:47.173Z,8.60
2018-09-25T04:38:20.602Z,8.50
2018-09-25T04:40:54.178Z,8.50
2018-09-25T04:43:27.586Z,8.50
2018-09-25T04:46:00.985Z,8.50
2018-09-25T04:48:34.474Z,8.40
2018-09-25T04:51:07.746Z,8.40
2018-09-25T04:53:41.297Z,8.40
2018-09-25T04:56:14.781Z,8.40
2018-09-25T04:58:48.311Z,8.30
2018-09-25T05:01:21.789Z,8.30
2018-09-25T05:03:55.421Z,8.30
2018-09-25T05:06:28.874Z,8.40
2018-09-25T05:09:02.452Z,8.40
2018-09-25T05:11:35.965Z,8.40
2018-09-25T05:14:09.509Z,8.30
2018-09-25T05:16:43.020Z,8.20
2018-09-25T05:19:16.448Z,8.20
2018-09-25T05:21:49.723Z,8.20
2018-09-25T05:24:23.298Z,8.20
2018-09-25T05:26:56.805Z,8.10
2018-09-25T05:29:30.414Z,8.20
2018-09-25T05:32:03.846Z,8.10
2018-09-25T05:34:37.246Z,8.10
2018-09-25T05:37:10.981Z,8.10
2018-09-25T05:39:44.560Z,8.10
2018-09-25T05:42:17.994Z,8.00
2018-09-25T05:44:51.406Z,8.00
2018-09-25T05:47:25.015Z,8.00
2018-09-25T05:49:58.493Z,8.00
2018-09-25T05:52:32.057Z,8.00
2018-09-25T05:55:05.482Z,7.90
2018-09-25T05:57:38.861Z,8.00
2018-09-25T06:00:12.638Z,8.00
2018-09-25T06:02:46.050Z,8.00
2018-09-25T06:05:19.518Z,8.10
2018-09-25T06:07:52.956Z,8.20
2018-09-25T06:10:26.511Z,8.20
2018-09-25T06:12:59.962Z,8.20
2018-09-25T06:15:40.339Z,8.30
2018-09-25T06:18:13.923Z,8.30
2018-09-25T06:20:47.346Z,8.30
2018-09-25T06:23:20.882Z,8.30
2018-09-25T06:25:54.284Z,8.40
2018-09-25T06:28:27.590Z,8.40
2018-09-25T06:31:00.990Z,8.50
2018-09-25T06:33:34.422Z,8.50
2018-09-25T06:36:07.722Z,8.50
2018-09-25T06:38:41.136Z,8.60
2018-09-25T06:41:14.688Z,8.60
2018-09-25T06:43:47.966Z,8.70
2018-09-25T06:46:21.459Z,8.80
2018-09-25T06:48:54.802Z,8.80
2018-09-25T06:51:28.226Z,8.80
2018-09-25T06:54:01.561Z,8.90
2018-09-25T06:56:35.186Z,9.00
2018-09-25T06:59:08.586Z,9.00
2018-09-25T07:01:41.886Z,9.10
2018-09-25T07:04:15.330Z,9.20
2018-09-25T07:06:48.874Z,9.20
2018-09-25T07:09:22.415Z,9.30
2018-09-25T07:11:56.003Z,9.40
2018-09-25T07:14:29.393Z,9.40
2018-09-25T07:17:02.731Z,9.40
2018-09-25T07:19:36.024Z,9.50
2018-09-25T07:22:09.586Z,9.60
2018-09-25T07:24:43.113Z,9.70
2018-09-25T07:27:16.334Z,9.70
2018-09-25T07:29:49.642Z,9.80
2018-09-25T07:32:23.118Z,9.80
2018-09-25T07:34:56.687Z,9.90
2018-09-25T07:37:30.230Z,9.90
2018-09-25T07:40:03.834Z,10.00
2018-09-25T07:42:37.482Z,10.10
2018-09-25T07:45:11.028Z,10.20
2018-09-25T07:47:44.670Z,10.20
2018-09-25T07:50:18.206Z,10.30
2018-09-25T07:52:51.778Z,10.30
2018-09-25T07:55:25.348Z,10.40
2018-09-25T07:57:58.718Z,10.50
2018-09-25T08:00:31.999Z,10.60
2018-09-25T08:03:05.550Z,10.60
2018-09-25T08:05:38.830Z,10.70
2018-09-25T08:08:12.283Z,10.80
2018-09-25T08:10:45.642Z,10.90
2018-09-25T08:13:19.073Z,11.00
2018-09-25T08:15:52.477Z,11.10
2018-09-25T08:18:25.832Z,11.20
2018-09-25T08:20:59.436Z,11.20
2018-09-25T08:23:32.886Z,11.30
2018-09-25T08:26:06.474Z,11.40
2018-09-25T08:28:39.890Z,11.50
2018-09-25T08:31:13.178Z,11.60
2018-09-25T08:33:46.726Z,11.70
2018-09-25T08:36:20.310Z,11.80
2018-09-25T08:38:53.915Z,11.90
2018-09-25T08:41:27.249Z,12.00
2018-09-25T08:44:00.851Z,12.10
2018-09-25T08:46:34.302Z,12.20
2018-09-25T08:49:07.729Z,12.30
2018-09-25T08:51:41.291Z,12.40
2018-09-25T08:54:14.834Z,12.50
2018-09-25T08:56:48.242Z,12.60
2018-09-25T08:59:21.844Z,12.70
2018-09-25T09:01:55.405Z,12.80
2018-09-25T09:04:28.935Z,12.90
2018-09-25T09:07:02.270Z,13.10
2018-09-25T09:09:35.691Z,13.20
2018-09-25T09:12:09.253Z,13.30
2018-09-25T09:14:42.822Z,13.40
2018-09-25T09:17:16.387Z,13.50
2018-09-25T09:19:49.951Z,13.60
2018-09-25T09:22:23.261Z,13.80
2018-09-25T09:24:56.638Z,13.90
2018-09-25T09:27:30.078Z,14.00
2018-09-25T09:30:03.547Z,14.00
2018-09-25T09:32:37.081Z,14.00
2018-09-25T09:35:10.633Z,13.90
2018-09-25T09:37:44.243Z,13.90
2018-09-25T09:40:17.671Z,13.90
2018-09-25T09:42:51.074Z,13.80
2018-09-25T09:45:24.806Z,13.90
2018-09-25T09:47:58.258Z,14.00
2018-09-25T09:50:31.887Z,14.00
2018-09-25T09:53:05.297Z,13.90
2018-09-25T09:55:38.894Z,13.90
2018-09-25T09:58:12.331Z,13.80
2018-09-25T10:00:45.962Z,13.80
2018-09-25T10:03:19.438Z,13.90
2018-09-25T10:05:52.985Z,13.90
2018-09-25T10:08:26.526Z,14.10
2018-09-25T10:10:59.826Z,14.30
2018-09-25T10:13:33.210Z,14.40
2018-09-25T10:16:06.782Z,14.50
2018-09-25T10:18:40.357Z,14.60
2018-09-25T10:21:13.866Z,14.60
2018-09-25T10:23:47.274Z,14.70
2018-09-25T10:26:20.574Z,14.80
2018-09-25T10:28:54.165Z,14.90
2018-09-25T10:31:27.461Z,15.00
2018-09-25T10:34:01.071Z,15.00
2018-09-25T10:36:34.603Z,15.10
2018-09-25T10:39:08.150Z,15.10
2018-09-25T10:41:41.459Z,15.20
2018-09-25T10:44:14.914Z,15.30
2018-09-25T10:46:48.461Z,15.40
2018-09-25T10:49:21.977Z,15.40
2018-09-25T10:51:55.544Z,15.50
2018-09-25T10:54:29.059Z,15.70
2018-09-25T10:57:02.502Z,15.70
2018-09-25T10:59:36.084Z,15.80
2018-09-25T11:02:09.510Z,15.90
2018-09-25T11:04:43.075Z,16.10
2018-09-25T11:07:16.451Z,16.20
2018-09-25T11:09:49.890Z,16.30
2018-09-25T11:12:23.558Z,16.30
2018-09-25T11:14:57.146Z,16.40
2018-09-25T11:17:30.718Z,16.60
2018-09-25T11:20:04.151Z,16.70
2018-09-25T11:22:37.460Z,16.60
2018-09-25T11:25:10.789Z,16.70
2018-09-25T11:27:44.085Z,16.90
2018-09-25T11:30:17.474Z,17.20
2018-09-25T11:32:50.778Z,17.40
2018-09-25T11:35:24.390Z,17.40
2018-09-25T11:37:57.758Z,17.40
2018-09-25T11:40:31.318Z,17.50
2018-09-25T11:43:04.715Z,17.60
2018-09-25T11:45:38.159Z,17.70
2018-09-25T11:48:11.602Z,17.90
2018-09-25T11:50:45.212Z,18.10
2018-09-25T11:53:18.620Z,18.20
2018-09-25T11:55:52.029Z,18.40
2018-09-25T11:58:25.374Z,18.50
2018-09-25T12:00:58.853Z,18.60
2018-09-25T12:03:32.177Z,18.70
2018-09-25T12:06:05.489Z,18.80
2018-09-25T12:08:39.062Z,18.90
2018-09-25T12:11:12.623Z,19.00
2018-09-25T12:13:46.015Z,19.00
2018-09-25T12:16:19.443Z,19.00
2018-09-25T12:18:52.987Z,19.10
2018-09-25T12:21:26.539Z,19.20
2018-09-25T12:23:59.972Z,19.40
2018-09-25T12:26:33.557Z,19.70
2018-09-25T12:29:06.987Z,20.00
2018-09-25T12:31:40.630Z,20.10
2018-09-25T12:34:14.206Z,20.30
2018-09-25T12:36:47.826Z,20.50
2018-09-25T12:39:21.117Z,20.60
2018-09-25T12:41:54.685Z,20.70
2018-09-25T12:44:28.006Z,20.80
2018-09-25T12:47:01.518Z,21.00
2018-09-25T12:49:35.075Z,21.30
2018-09-25T12:52:08.602Z,21.60
2018-09-25T12:54:42.030Z,22.10
2018-09-25T12:57:15.687Z,22.90
2018-09-25T12:59:49.105Z,23.90
2018-09-25T13:02:22.452Z,24.60
2018-09-25T13:04:55.986Z,26.20
2018-09-25T13:07:29.436Z,27.50
2018-09-25T13:10:02.823Z,28.80
2018-09-25T13:12:36.197Z,30.30
2018-09-25T13:15:09.514Z,31.60
2018-09-25T13:17:43.204Z,32.10
2018-09-25T13:20:16.617Z,32.40
2018-09-25T13:22:50.028Z,32.40
2018-09-25T13:25:23.607Z,33.20
2018-09-25T13:27:56.913Z,33.60
2018-09-25T13:30:30.346Z,33.30
2018-09-25T13:33:03.943Z,33.10
2018-09-25T13:35:37.454Z,32.80
2018-09-25T13:38:11.027Z,32.50
2018-09-25T13:40:44.486Z,32.40
2018-09-25T13:43:17.841Z,32.10
2018-09-25T13:45:51.227Z,31.90
2018-09-25T13:48:24.849Z,31.40
2018-09-25T13:50:58.310Z,31.20
2018-09-25T13:53:31.864Z,31.00
2018-09-25T13:56:05.305Z,30.60
2018-09-25T13:58:38.942Z,30.10
2018-09-25T14:01:12.494Z,29.70
2018-09-25T14:03:45.794Z,29.00
2018-09-25T14:06:19.234Z,28.60
2018-09-25T14:08:52.842Z,28.00
2018-09-25T14:11:26.339Z,27.50
2018-09-25T14:13:59.918Z,27.60
2018-09-25T14:16:33.396Z,27.30
2018-09-25T14:19:06.984Z,27.20
2018-09-25T14:21:40.554Z,27.10
2018-09-25T14:24:14.019Z,27.20
2018-09-25T14:26:47.394Z,26.90
2018-09-25T14:29:20.945Z,26.70
2018-09-25T14:31:54.377Z,26.00
2018-09-25T14:34:27.745Z,25.70
2018-09-25T14:37:01.211Z,25.40
2018-09-25T14:39:34.545Z,25.70
2018-09-25T14:42:07.994Z,25.70
2018-09-25T14:44:41.501Z,25.50
2018-09-25T14:47:15.079Z,25.30
2018-09-25T14:49:50.155Z,24.90
2018-09-25T14:52:23.822Z,24.80
2018-09-25T14:54:57.372Z,25.00
2018-09-25T14:57:30.848Z,24.90
2018-09-25T15:00:04.416Z,24.80
2018-09-25T15:02:37.965Z,24.70
2018-09-25T15:05:11.318Z,24.80
2018-09-25T15:07:44.648Z,24.80
2018-09-25T15:10:18.240Z,24.60
2018-09-25T15:12:51.786Z,24.40
2018-09-25T15:15:25.371Z,24.40
2018-09-25T15:17:58.794Z,24.20
2018-09-25T15:20:32.396Z,24.30
2018-09-25T15:23:07.154Z,24.40
2018-09-25T15:25:40.719Z,24.50
2018-09-25T15:28:14.116Z,24.30
2018-09-25T15:30:47.651Z,23.90
2018-09-25T15:33:21.159Z,23.70
2018-09-25T15:35:54.843Z,23.80
2018-09-25T15:38:28.246Z,23.60
2018-09-25T15:41:01.830Z,23.60
2018-09-25T15:43:35.230Z,23.40
2018-09-25T15:46:08.662Z,23.10
2018-09-25T15:48:41.944Z,22.80
2018-09-25T15:51:15.545Z,22.70
2018-09-25T15:53:49.050Z,22.70
2018-09-25T15:56:22.374Z,22.60
2018-09-25T15:58:55.791Z,22.30
2018-09-25T16:01:29.066Z,22.00
2018-09-25T16:04:02.495Z,21.90
2018-09-25T16:06:35.770Z,21.80
2018-09-25T16:09:10.778Z,21.60
2018-09-25T16:11:44.341Z,21.50
2018-09-25T16:14:17.723Z,21.40
2018-09-25T16:16:51.014Z,21.10
2018-09-25T16:19:24.502Z,21.00
2018-09-25T16:21:58.117Z,20.90
2018-09-25T16:24:31.506Z,20.80
2018-09-25T16:27:04.782Z,20.70
2018-09-25T16:29:38.342Z,20.50
2018-09-25T16:32:11.045Z,20.30
2018-09-25T16:34:44.512Z,20.00
2018-09-25T16:37:18.054Z,19.80
2018-09-25T16:39:51.610Z,19.70
2018-09-25T16:42:24.918Z,19.50
2018-09-25T16:44:58.322Z,19.30
2018-09-25T16:47:31.801Z,19.20
2018-09-25T16:50:05.031Z,19.10
2018-09-25T16:52:38.561Z,19.10
2018-09-25T16:55:12.022Z,19.00
2018-09-25T16:57:45.320Z,18.80
2018-09-25T17:00:18.578Z,18.70
2018-09-25T17:02:52.125Z,18.50
2018-09-25T17:05:25.610Z,18.40
2018-09-25T17:07:58.917Z,18.20
2018-09-25T17:10:32.454Z,18.00
2018-09-25T17:13:05.729Z,17.90
2018-09-25T17:15:39.262Z,17.80
2018-09-25T17:18:12.878Z,17.60
2018-09-25T17:20:46.470Z,17.50
2018-09-25T17:23:19.771Z,17.30
2018-09-25T17:25:53.176Z,17.10
2018-09-25T17:28:26.599Z,17.00
2018-09-25T17:31:00.087Z,17.00
2018-09-25T17:33:33.390Z,16.90
2018-09-25T17:36:06.794Z,16.70
2018-09-25T17:38:40.190Z,16.60
2018-09-25T17:41:13.733Z,16.50
2018-09-25T17:43:47.273Z,16.30
2018-09-25T17:46:20.739Z,16.20
2018-09-25T17:48:54.035Z,16.10
2018-09-25T17:51:27.594Z,16.10
2018-09-25T17:54:01.151Z,16.00
2018-09-25T17:56:34.625Z,15.90
2018-09-25T17:59:08.106Z,15.80
2018-09-25T18:01:41.429Z,15.80
2018-09-25T18:04:15.019Z,15.80
2018-09-25T18:06:48.622Z,15.70
2018-09-25T18:09:21.924Z,15.70
2018-09-25T18:11:55.430Z,15.60
2018-09-25T18:14:28.987Z,15.60
2018-09-25T18:17:02.499Z,15.50
2018-09-25T18:19:36.118Z,15.50
2018-09-25T18:22:09.634Z,15.40
2018-09-25T18:24:43.274Z,15.30
2018-09-25T18:27:16.834Z,15.20
2018-09-25T18:29:50.417Z,15.20
2018-09-25T18:32:23.966Z,15.10
2018-09-25T18:34:57.494Z,15.10
2018-09-25T18:37:30.930Z,15.00
2018-09-25T18:40:04.526Z,14.90
2018-09-25T18:42:38.086Z,14.90
2018-09-25T18:45:11.663Z,14.80
2018-09-25T18:47:45.046Z,14.70
2018-09-25T18:50:18.649Z,14.70
2018-09-25T18:52:52.110Z,14.60
2018-09-25T18:55:25.759Z,14.50
2018-09-25T18:57:59.418Z,14.50
2018-09-25T19:00:32.827Z,14.40
2018-09-25T19:03:06.100Z,14.30
2018-09-25T19:05:40.528Z,14.30
2018-09-25T19:08:13.938Z,14.20
2018-09-25T19:10:47.510Z,14.10
2018-09-25T19:13:21.065Z,14.10
2018-09-25T19:15:54.618Z,14.10
2018-09-25T19:18:28.030Z,14.00
2018-09-25T19:21:01.585Z,14.00
2018-09-25T19:23:35.120Z,14.00
2018-09-25T19:26:08.422Z,13.90
2018-09-25T19:28:41.825Z,13.80
2018-09-25T19:31:15.118Z,13.80
2018-09-25T19:33:48.582Z,13.80
2018-09-25T19:36:21.854Z,13.70
2018-09-25T19:38:55.418Z,13.70
2018-09-25T19:41:29.018Z,13.70
2018-09-25T19:44:02.527Z,13.60
2018-09-25T19:46:35.955Z,13.60
2018-09-25T19:49:09.315Z,13.70
2018-09-25T19:51:42.698Z,13.60
2018-09-25T19:54:15.986Z,13.60
2018-09-25T19:56:49.402Z,13.60
2018-09-25T19:59:22.808Z,13.50
2018-09-25T20:01:56.123Z,13.50
2018-09-25T20:04:29.786Z,13.50
2018-09-25T20:07:03.055Z,13.40
2018-09-25T20:09:36.496Z,13.40
2018-09-25T20:12:10.318Z,13.40
2018-09-25T20:14:43.878Z,13.30
2018-09-25T20:17:17.406Z,13.20
2018-09-25T20:19:50.973Z,13.10
2018-09-25T20:22:24.335Z,13.10
2018-09-25T20:24:57.774Z,13.10
2018-09-25T20:27:31.214Z,13.10
2018-09-25T20:30:04.758Z,13.00
2018-09-25T20:32:38.302Z,12.90
2018-09-25T20:35:11.914Z,12.80
2018-09-25T20:37:45.493Z,12.80
2018-09-25T20:40:19.056Z,12.70
2018-09-25T20:42:52.354Z,12.70
2018-09-25T20:45:25.785Z,12.60
2018-09-25T20:47:59.406Z,12.50
2018-09-25T20:50:32.992Z,12.50
2018-09-25T20:53:06.527Z,12.50
2018-09-25T20:55:39.918Z,12.50
2018-09-25T20:58:13.446Z,12.40
2018-09-25T21:00:47.032Z,12.40
2018-09-25T21:03:20.437Z,12.40
2018-09-25T21:05:53.865Z,12.30
2018-09-25T21:08:27.317Z,12.30
2018-09-25T21:11:00.898Z,12.20
2018-09-25T21:13:34.550Z,12.20
2018-09-25T21:16:08.010Z,12.20
2018-09-25T21:18:41.464Z,12.10
2018-09-25T21:21:14.896Z,12.00
2018-09-25T21:23:48.370Z,11.90
2018-09-25T21:26:21.707Z,10.60
2018-09-25T21:28:55.126Z,11.80
2018-09-25T21:31:28.786Z,11.80
2018-09-25T21:34:02.336Z,11.80
2018-09-25T21:36:35.794Z,11.70
2018-09-25T21:39:09.586Z,11.50
2018-09-25T21:41:42.954Z,11.40
2018-09-25T21:44:16.383Z,11.20
2018-09-25T21:46:49.764Z,11.10
2018-09-25T21:49:23.095Z,11.10
2018-09-25T21:51:56.438Z,11.00
2018-09-25T21:54:29.745Z,10.80
2018-09-25T21:57:03.117Z,10.80
2018-09-25T21:59:36.454Z,10.80
2018-09-25T22:02:09.755Z,10.80
2018-09-25T22:04:43.318Z,10.80
2018-09-25T22:07:16.717Z,10.70
2018-09-25T22:09:50.406Z,10.60
2018-09-25T22:12:23.801Z,10.60
2018-09-25T22:14:57.366Z,10.60
2018-09-25T22:17:30.939Z,10.60
2018-09-25T22:20:04.420Z,10.50
2018-09-25T22:22:37.826Z,10.30
2018-09-25T22:25:11.455Z,10.30
2018-09-25T22:27:44.983Z,10.10
2018-09-25T22:30:18.386Z,10.00
2018-09-25T22:32:51.829Z,9.90
2018-09-25T22:35:25.446Z,9.80
2018-09-25T22:37:58.975Z,9.80
2018-09-25T22:40:32.434Z,9.80
2018-09-25T22:43:05.744Z,9.80
2018-09-25T22:45:39.010Z,9.80
2018-09-25T22:48:12.394Z,9.80
2018-09-25T22:50:45.954Z,9.70
2018-09-25T22:53:19.374Z,9.60
2018-09-25T22:55:52.835Z,9.70
2018-09-25T22:58:26.235Z,9.60
2018-09-25T23:00:59.681Z,9.60
2018-09-25T23:03:33.096Z,9.60
2018-09-25T23:06:06.636Z,9.60
2018-09-25T23:08:40.076Z,9.50
2018-09-25T23:11:13.356Z,9.50
2018-09-25T23:13:46.634Z,9.40
2018-09-25T23:16:20.035Z,9.30
2018-09-25T23:18:53.402Z,9.20
2018-09-25T23:21:26.980Z,9.30
2018-09-25T23:24:00.435Z,9.30
2018-09-25T23:26:33.911Z,9.30
2018-09-25T23:29:07.200Z,9.20
2018-09-25T23:31:40.572Z,9.20
2018-09-25T23:34:14.095Z,9.20
2018-09-25T23:36:47.741Z,9.20
2018-09-25T23:39:21.201Z,9.10
2018-09-25T23:41:54.488Z,9.10
2018-09-25T23:44:28.014Z,9.00
2018-09-25T23:47:05.366Z,9.00
2018-09-25T23:49:38.060Z,9.00
2018-09-25T23:52:11.613Z,9.00
2018-09-25T23:54:51.354Z,9.00
2018-09-25T23:57:24.086Z,8.90
2018-09-25T23:59:57.271Z,9.00
